createdAt,value
2017-01-29T00:00:26.404Z,0
2017-01-29T00:01:26.311Z,0
2017-01-29T00:02:26.320Z,0
2017-01-29T00:03:26.397Z,0
2017-01-29T00:04:25.982Z,0
2017-01-29T00:05:26.389Z,0
2017-01-29T00:06:26.456Z,0
2017-01-29T00:07:26.403Z,0
2017-01-29T00:08:26.403Z,0
2017-01-29T00:09:26.408Z,0
2017-01-29T00:10:26.448Z,0
2017-01-29T00:11:26.027Z,0
2017-01-29T00:12:26.033Z,0
2017-01-29T00:13:26.436Z,0
2017-01-29T00:14:26.043Z,0
2017-01-29T00:15:26.050Z,0
2017-01-29T00:16:26.457Z,0
2017-01-29T00:17:26.008Z,0
2017-01-29T00:18:26.467Z,0
2017-01-29T00:19:26.422Z,0
2017-01-29T00:20:26.079Z,0
2017-01-29T00:21:26.090Z,0
2017-01-29T00:22:26.040Z,0
2017-01-29T00:23:26.446Z,0
2017-01-29T00:24:26.448Z,0
2017-01-29T00:25:26.464Z,0
2017-01-29T00:26:26.115Z,0
2017-01-29T00:27:26.520Z,0
2017-01-29T00:28:26.474Z,0
2017-01-29T00:29:26.536Z,0
2017-01-29T00:30:26.492Z,0
2017-01-29T00:31:26.491Z,0
2017-01-29T00:32:26.553Z,0
2017-01-29T00:33:26.503Z,0
2017-01-29T00:34:26.193Z,0
2017-01-29T00:35:26.172Z,0
2017-01-29T00:36:26.573Z,0
2017-01-29T00:37:26.583Z,0
2017-01-29T00:38:26.587Z,0
2017-01-29T00:39:26.642Z,0
2017-01-29T00:40:26.205Z,0
2017-01-29T00:41:26.656Z,0
2017-01-29T00:42:26.609Z,0
2017-01-29T00:43:26.171Z,0
2017-01-29T00:44:26.619Z,0
2017-01-29T00:45:26.581Z,0
2017-01-29T00:46:26.236Z,0
2017-01-29T00:47:26.296Z,0
2017-01-29T00:48:26.740Z,0
2017-01-29T00:49:26.603Z,0
2017-01-29T00:50:26.213Z,0
2017-01-29T00:51:26.272Z,0
2017-01-29T00:52:26.774Z,0
2017-01-29T00:53:26.673Z,0
2017-01-29T00:54:25.940Z,0
2017-01-29T00:55:26.689Z,0
2017-01-29T00:56:26.246Z,0
2017-01-29T00:57:26.748Z,0
2017-01-29T00:58:26.267Z,0
2017-01-29T00:59:26.266Z,0
2017-01-29T01:00:26.669Z,0
2017-01-29T01:01:26.722Z,0
2017-01-29T01:02:26.676Z,0
2017-01-29T01:03:26.734Z,0
2017-01-29T01:04:25.998Z,0
2017-01-29T01:05:26.751Z,0
2017-01-29T01:06:25.922Z,0
2017-01-29T01:07:26.366Z,0
2017-01-29T01:08:26.320Z,0
2017-01-29T01:09:26.770Z,0
2017-01-29T01:10:26.784Z,0
2017-01-29T01:11:26.727Z,0
2017-01-29T01:12:25.997Z,0
2017-01-29T01:13:26.495Z,0
2017-01-29T01:14:26.852Z,0
2017-01-29T01:15:26.359Z,0
2017-01-29T01:16:26.366Z,0
2017-01-29T01:17:26.469Z,0
2017-01-29T01:18:26.428Z,0
2017-01-29T01:19:26.827Z,0
2017-01-29T01:20:26.883Z,0
2017-01-29T01:21:26.791Z,0
2017-01-29T01:22:26.401Z,0
2017-01-29T01:23:26.856Z,0
2017-01-29T01:24:26.803Z,0
2017-01-29T01:25:26.863Z,0
2017-01-29T01:26:26.821Z,0
2017-01-29T01:27:26.874Z,0
2017-01-29T01:28:26.830Z,0
2017-01-29T01:29:26.838Z,0
2017-01-29T01:30:26.507Z,0
2017-01-29T01:31:26.526Z,0
2017-01-29T01:32:26.905Z,0
2017-01-29T01:33:26.520Z,0
2017-01-29T01:34:26.920Z,0
2017-01-29T01:35:26.869Z,0
2017-01-29T01:36:26.533Z,0
2017-01-29T01:37:26.497Z,0
2017-01-29T01:38:26.648Z,0
2017-01-29T01:39:26.996Z,0
2017-01-29T01:40:26.904Z,0
2017-01-29T01:41:26.959Z,0
2017-01-29T01:42:26.570Z,0
2017-01-29T01:43:26.969Z,0
2017-01-29T01:44:26.981Z,0
2017-01-29T01:45:27.033Z,0
2017-01-29T01:46:26.942Z,0
2017-01-29T01:47:26.662Z,0
2017-01-29T01:48:27.055Z,0
2017-01-29T01:49:26.958Z,0
2017-01-29T01:50:26.574Z,0
2017-01-29T01:51:27.019Z,0
2017-01-29T01:52:26.634Z,0
2017-01-29T01:53:27.033Z,0
2017-01-29T01:54:26.986Z,0
2017-01-29T01:55:26.610Z,0
2017-01-29T01:56:26.618Z,0
2017-01-29T01:57:26.711Z,0
2017-01-29T01:58:27.111Z,0
2017-01-29T01:59:27.115Z,0
2017-01-29T02:00:41.212Z,0
2017-01-29T02:01:26.638Z,0
2017-01-29T02:02:27.391Z,0
2017-01-29T02:03:26.655Z,0
2017-01-29T02:04:27.050Z,0
2017-01-29T02:05:26.658Z,0
2017-01-29T02:06:27.111Z,0
2017-01-29T02:07:26.672Z,0
2017-01-29T02:08:27.173Z,0
2017-01-29T02:09:27.080Z,0
2017-01-29T02:10:26.345Z,0
2017-01-29T02:11:27.245Z,0
2017-01-29T02:12:27.096Z,0
2017-01-29T02:13:56.066Z,0
2017-01-29T02:14:27.210Z,0
2017-01-29T02:15:27.139Z,0
2017-01-29T02:16:27.120Z,0
2017-01-29T02:17:26.392Z,0
2017-01-29T02:18:27.134Z,0
2017-01-29T02:19:27.139Z,0
2017-01-29T02:20:27.198Z,0
2017-01-29T02:21:27.153Z,0
2017-01-29T02:22:27.257Z,0
2017-01-29T02:23:27.215Z,0
2017-01-29T02:24:27.222Z,0
2017-01-29T02:25:27.231Z,0
2017-01-29T02:26:26.888Z,0
2017-01-29T02:27:27.236Z,0
2017-01-29T02:28:26.799Z,0
2017-01-29T02:29:27.252Z,0
2017-01-29T02:30:26.867Z,0
2017-01-29T02:31:27.315Z,0
2017-01-29T02:32:27.320Z,0
2017-01-29T02:33:26.827Z,0
2017-01-29T02:34:27.258Z,0
2017-01-29T02:35:27.312Z,0
2017-01-29T02:36:27.269Z,0
2017-01-29T02:37:27.345Z,0
2017-01-29T02:38:27.253Z,0
2017-01-29T02:39:27.316Z,0
2017-01-29T02:40:26.871Z,0
2017-01-29T02:41:27.326Z,0
2017-01-29T02:42:26.933Z,0
2017-01-29T02:43:27.282Z,0
2017-01-29T02:44:27.342Z,0
2017-01-29T02:45:27.294Z,0
2017-01-29T02:46:27.351Z,0
2017-01-29T02:47:27.018Z,0
2017-01-29T02:48:27.417Z,0
2017-01-29T02:49:27.322Z,0
2017-01-29T02:50:27.329Z,0
2017-01-29T02:51:27.339Z,0
2017-01-29T02:52:27.343Z,0
2017-01-29T02:53:26.568Z,0
2017-01-29T02:54:27.424Z,0
2017-01-29T02:55:27.359Z,0
2017-01-29T02:56:27.364Z,0
2017-01-29T02:57:27.519Z,0
2017-01-29T02:58:27.376Z,0
2017-01-29T02:59:27.382Z,0
2017-01-29T03:00:27.013Z,0
2017-01-29T03:01:27.451Z,0
2017-01-29T03:02:27.423Z,0
2017-01-29T03:03:27.416Z,0
2017-01-29T03:04:27.022Z,0
2017-01-29T03:05:27.567Z,0
2017-01-29T03:06:27.428Z,0
2017-01-29T03:07:27.340Z,0
2017-01-29T03:08:27.041Z,0
2017-01-29T03:09:27.491Z,0
2017-01-29T03:10:27.054Z,0
2017-01-29T03:11:27.556Z,0
2017-01-29T03:12:27.459Z,0
2017-01-29T03:13:42.023Z,0
2017-01-29T03:14:27.568Z,0
2017-01-29T03:15:27.529Z,0
2017-01-29T03:16:27.484Z,0
2017-01-29T03:17:27.544Z,0
2017-01-29T03:18:27.596Z,0
2017-01-29T03:19:27.804Z,0
2017-01-29T03:20:27.212Z,0
2017-01-29T03:21:27.130Z,0
2017-01-29T03:22:27.522Z,0
2017-01-29T03:23:27.621Z,0
2017-01-29T03:24:27.584Z,0
2017-01-29T03:25:27.537Z,0
2017-01-29T03:26:27.654Z,0
2017-01-29T03:27:27.581Z,0
2017-01-29T03:28:27.553Z,0
2017-01-29T03:29:27.214Z,0
2017-01-29T03:30:27.570Z,0
2017-01-29T03:31:27.571Z,0
2017-01-29T03:32:27.179Z,0
2017-01-29T03:33:27.192Z,0
2017-01-29T03:34:27.607Z,0
2017-01-29T03:35:27.696Z,0
2017-01-29T03:36:27.603Z,0
2017-01-29T03:37:27.616Z,0
2017-01-29T03:38:27.268Z,0
2017-01-29T03:39:27.618Z,0
2017-01-29T03:40:27.675Z,0
2017-01-29T03:41:27.635Z,0
2017-01-29T03:42:27.638Z,0
2017-01-29T03:43:42.174Z,0
2017-01-29T03:44:27.802Z,0
2017-01-29T03:45:27.659Z,0
2017-01-29T03:46:27.319Z,0
2017-01-29T03:47:27.790Z,0
2017-01-29T03:48:27.280Z,0
2017-01-29T03:49:27.335Z,0
2017-01-29T03:50:27.288Z,0
2017-01-29T03:51:27.694Z,0
2017-01-29T03:52:26.985Z,0
2017-01-29T03:53:27.314Z,0
2017-01-29T03:54:27.323Z,0
2017-01-29T03:55:28.016Z,0
2017-01-29T03:56:27.377Z,0
2017-01-29T03:57:27.729Z,0
2017-01-29T03:58:27.781Z,0
2017-01-29T03:59:27.344Z,0
2017-01-29T04:00:27.820Z,0
2017-01-29T04:01:27.360Z,0
2017-01-29T04:02:27.859Z,0
2017-01-29T04:03:27.481Z,0
2017-01-29T04:04:27.786Z,0
2017-01-29T04:05:27.430Z,0
2017-01-29T04:06:27.541Z,0
2017-01-29T04:07:27.798Z,0
2017-01-29T04:08:27.794Z,0
2017-01-29T04:09:28.201Z,0
2017-01-29T04:10:27.510Z,0
2017-01-29T04:11:27.868Z,0
2017-01-29T04:12:27.869Z,0
2017-01-29T04:13:45.109Z,0
2017-01-29T04:14:27.882Z,0
2017-01-29T04:15:27.845Z,0
2017-01-29T04:16:27.050Z,0
2017-01-29T04:17:27.503Z,0
2017-01-29T04:18:27.851Z,0
2017-01-29T04:19:27.466Z,0
2017-01-29T04:20:27.126Z,0
2017-01-29T04:21:27.578Z,0
2017-01-29T04:22:27.881Z,0
2017-01-29T04:23:27.884Z,0
2017-01-29T04:24:27.944Z,0
2017-01-29T04:25:27.902Z,0
2017-01-29T04:26:27.976Z,0
2017-01-29T04:27:27.914Z,0
2017-01-29T04:28:28.014Z,0
2017-01-29T04:29:27.576Z,0
2017-01-29T04:30:27.996Z,0
2017-01-29T04:31:28.038Z,0
2017-01-29T04:32:27.989Z,0
2017-01-29T04:33:28.028Z,0
2017-01-29T04:34:27.651Z,0
2017-01-29T04:35:27.662Z,0
2017-01-29T04:36:27.957Z,0
2017-01-29T04:37:27.969Z,0
2017-01-29T04:38:27.975Z,0
2017-01-29T04:39:28.080Z,0
2017-01-29T04:40:27.982Z,0
2017-01-29T04:41:28.042Z,0
2017-01-29T04:42:27.207Z,0
2017-01-29T04:43:42.487Z,0
2017-01-29T04:44:28.159Z,0
2017-01-29T04:45:28.015Z,0
2017-01-29T04:46:28.070Z,0
2017-01-29T04:47:28.032Z,0
2017-01-29T04:48:28.092Z,0
2017-01-29T04:49:27.647Z,0
2017-01-29T04:50:28.046Z,0
2017-01-29T04:51:28.054Z,0
2017-01-29T04:52:28.068Z,0
2017-01-29T04:53:28.123Z,0
2017-01-29T04:54:27.723Z,0
2017-01-29T04:55:28.080Z,0
2017-01-29T04:56:28.131Z,0
2017-01-29T04:57:27.698Z,0
2017-01-29T04:58:27.353Z,0
2017-01-29T04:59:28.105Z,0
2017-01-29T05:00:28.156Z,0
2017-01-29T05:01:28.161Z,0
2017-01-29T05:02:27.722Z,0
2017-01-29T05:03:28.227Z,0
2017-01-29T05:04:27.780Z,0
2017-01-29T05:05:27.811Z,0
2017-01-29T05:06:27.834Z,0
2017-01-29T05:07:28.198Z,0
2017-01-29T05:08:28.205Z,0
2017-01-29T05:09:28.161Z,0
2017-01-29T05:10:27.826Z,0
2017-01-29T05:11:27.774Z,0
2017-01-29T05:12:28.227Z,0
2017-01-29T05:13:42.718Z,0
2017-01-29T05:14:27.859Z,0
2017-01-29T05:15:27.854Z,0
2017-01-29T05:16:27.915Z,0
2017-01-29T05:17:28.415Z,0
2017-01-29T05:18:28.329Z,0
2017-01-29T05:19:28.294Z,0
2017-01-29T05:20:28.277Z,0
2017-01-29T05:21:27.838Z,0
2017-01-29T05:22:28.292Z,0
2017-01-29T05:23:28.293Z,0
2017-01-29T05:24:28.303Z,0
2017-01-29T05:25:28.451Z,0
2017-01-29T05:26:27.914Z,0
2017-01-29T05:27:28.320Z,0
2017-01-29T05:28:27.933Z,0
2017-01-29T05:29:27.982Z,0
2017-01-29T05:30:28.025Z,0
2017-01-29T05:31:28.395Z,0
2017-01-29T05:32:27.903Z,0
2017-01-29T05:33:27.962Z,0
2017-01-29T05:34:28.313Z,0
2017-01-29T05:35:28.318Z,0
2017-01-29T05:36:28.721Z,0
2017-01-29T05:37:27.936Z,0
2017-01-29T05:38:28.337Z,0
2017-01-29T05:39:28.390Z,0
2017-01-29T05:40:28.011Z,0
2017-01-29T05:41:28.403Z,0
2017-01-29T05:42:28.363Z,0
2017-01-29T05:43:42.555Z,0
2017-01-29T05:44:28.022Z,0
2017-01-29T05:45:28.035Z,0
2017-01-29T05:46:28.039Z,0
2017-01-29T05:47:28.494Z,0
2017-01-29T05:48:28.000Z,0
2017-01-29T05:49:28.452Z,0
2017-01-29T05:50:27.573Z,0
2017-01-29T05:51:28.466Z,0
2017-01-29T05:52:28.472Z,0
2017-01-29T05:53:28.482Z,0
2017-01-29T05:54:28.589Z,0
2017-01-29T05:55:28.042Z,0
2017-01-29T05:56:28.049Z,0
2017-01-29T05:57:28.503Z,0
2017-01-29T05:58:28.110Z,0
2017-01-29T05:59:28.164Z,0
2017-01-29T06:00:28.476Z,0
2017-01-29T06:01:28.474Z,0
2017-01-29T06:02:28.634Z,0
2017-01-29T06:03:28.535Z,0
2017-01-29T06:04:28.540Z,0
2017-01-29T06:05:28.550Z,0
2017-01-29T06:06:28.109Z,0
2017-01-29T06:07:28.561Z,0
2017-01-29T06:08:28.615Z,0
2017-01-29T06:09:28.525Z,0
2017-01-29T06:10:28.526Z,0
2017-01-29T06:11:28.534Z,0
2017-01-29T06:12:28.144Z,0
2017-01-29T06:13:28.593Z,0
2017-01-29T06:14:28.352Z,0
2017-01-29T06:15:28.213Z,0
2017-01-29T06:16:28.226Z,0
2017-01-29T06:17:28.667Z,0
2017-01-29T06:18:28.230Z,0
2017-01-29T06:19:27.840Z,0
2017-01-29T06:20:28.586Z,0
2017-01-29T06:21:28.648Z,0
2017-01-29T06:22:28.655Z,0
2017-01-29T06:23:28.115Z,0
2017-01-29T06:24:28.610Z,0
2017-01-29T06:25:28.667Z,0
2017-01-29T06:26:28.922Z,0
2017-01-29T06:27:28.782Z,0
2017-01-29T06:28:28.629Z,0
2017-01-29T06:29:28.641Z,0
2017-01-29T06:30:28.645Z,0
2017-01-29T06:31:28.358Z,0
2017-01-29T06:32:28.312Z,0
2017-01-29T06:33:28.760Z,0
2017-01-29T06:34:28.667Z,0
2017-01-29T06:35:28.274Z,0
2017-01-29T06:36:28.733Z,0
2017-01-29T06:37:28.788Z,0
2017-01-29T06:38:28.794Z,0
2017-01-29T06:39:28.698Z,0
2017-01-29T06:40:28.805Z,0
2017-01-29T06:41:28.410Z,0
2017-01-29T06:42:29.020Z,0
2017-01-29T06:43:28.371Z,0
2017-01-29T06:44:28.330Z,0
2017-01-29T06:45:28.782Z,0
2017-01-29T06:46:28.787Z,0
2017-01-29T06:47:28.797Z,0
2017-01-29T06:48:28.799Z,0
2017-01-29T06:49:28.857Z,0
2017-01-29T06:50:28.367Z,0
2017-01-29T06:51:28.867Z,0
2017-01-29T06:52:28.427Z,0
2017-01-29T06:53:28.878Z,0
2017-01-29T06:54:28.833Z,0
2017-01-29T06:55:28.791Z,0
2017-01-29T06:56:28.847Z,0
2017-01-29T06:57:28.858Z,0
2017-01-29T06:58:28.468Z,0
2017-01-29T06:59:28.417Z,0
2017-01-29T07:00:28.522Z,4
2017-01-29T07:01:28.875Z,4
2017-01-29T07:02:28.937Z,4
2017-01-29T07:03:28.098Z,0
2017-01-29T07:04:28.845Z,4
2017-01-29T07:05:28.848Z,4
2017-01-29T07:06:28.928Z,4
2017-01-29T07:07:28.516Z,4
2017-01-29T07:08:28.963Z,4
2017-01-29T07:09:28.873Z,4
2017-01-29T07:10:28.880Z,8
2017-01-29T07:11:28.487Z,8
2017-01-29T07:12:28.642Z,4
2017-01-29T07:13:28.940Z,4
2017-01-29T07:14:28.954Z,4
2017-01-29T07:15:28.951Z,4
2017-01-29T07:16:28.914Z,4
2017-01-29T07:17:28.817Z,4
2017-01-29T07:18:29.026Z,8
2017-01-29T07:19:28.139Z,8
2017-01-29T07:20:29.033Z,4
2017-01-29T07:21:28.938Z,4
2017-01-29T07:22:28.996Z,4
2017-01-29T07:23:28.958Z,4
2017-01-29T07:24:29.108Z,8
2017-01-29T07:25:28.969Z,8
2017-01-29T07:26:28.974Z,8
2017-01-29T07:27:29.078Z,12
2017-01-29T07:28:29.037Z,12
2017-01-29T07:29:28.991Z,12
2017-01-29T07:30:29.144Z,12
2017-01-29T07:31:28.998Z,12
2017-01-29T07:32:28.716Z,16
2017-01-29T07:33:29.060Z,16
2017-01-29T07:34:27.931Z,20
2017-01-29T07:35:29.177Z,24
2017-01-29T07:36:28.683Z,28
2017-01-29T07:37:29.045Z,28
2017-01-29T07:38:29.093Z,24
2017-01-29T07:39:29.103Z,24
2017-01-29T07:40:29.153Z,24
2017-01-29T07:41:28.721Z,24
2017-01-29T07:42:29.118Z,28
2017-01-29T07:43:29.127Z,28
2017-01-29T07:44:29.129Z,36
2017-01-29T07:45:28.687Z,32
2017-01-29T07:46:29.545Z,32
2017-01-29T07:47:28.849Z,32
2017-01-29T07:48:29.300Z,28
2017-01-29T07:49:28.715Z,24
2017-01-29T07:50:29.212Z,24
2017-01-29T07:51:29.123Z,20
2017-01-29T07:52:29.136Z,16
2017-01-29T07:53:29.035Z,16
2017-01-29T07:54:29.188Z,20
2017-01-29T07:55:29.141Z,24
2017-01-29T07:56:28.753Z,28
2017-01-29T07:57:28.759Z,32
2017-01-29T07:58:29.314Z,36
2017-01-29T07:59:28.772Z,40
2017-01-29T08:00:29.171Z,44
2017-01-29T08:01:28.939Z,52
2017-01-29T08:02:28.896Z,56
2017-01-29T08:03:29.242Z,56
2017-01-29T08:04:29.247Z,64
2017-01-29T08:05:29.309Z,64
2017-01-29T08:06:29.211Z,64
2017-01-29T08:07:29.214Z,64
2017-01-29T08:08:29.321Z,56
2017-01-29T08:09:28.884Z,48
2017-01-29T08:10:29.285Z,44
2017-01-29T08:11:28.896Z,44
2017-01-29T08:12:29.299Z,48
2017-01-29T08:13:29.355Z,44
2017-01-29T08:14:29.256Z,40
2017-01-29T08:15:28.917Z,44
2017-01-29T08:16:29.313Z,48
2017-01-29T08:17:29.272Z,60
2017-01-29T08:18:29.332Z,64
2017-01-29T08:19:28.625Z,48
2017-01-29T08:20:29.292Z,48
2017-01-29T08:21:29.353Z,48
2017-01-29T08:22:29.480Z,60
2017-01-29T08:23:28.916Z,76
2017-01-29T08:24:29.866Z,92
2017-01-29T08:25:29.377Z,108
2017-01-29T08:26:29.381Z,136
2017-01-29T08:27:28.987Z,156
2017-01-29T08:28:29.043Z,168
2017-01-29T08:29:29.446Z,168
2017-01-29T08:30:29.405Z,172
2017-01-29T08:31:29.263Z,184
2017-01-29T08:32:29.363Z,200
2017-01-29T08:33:29.073Z,208
2017-01-29T08:34:29.482Z,220
2017-01-29T08:35:29.403Z,240
2017-01-29T08:36:29.092Z,268
2017-01-29T08:37:29.444Z,268
2017-01-29T08:38:29.448Z,212
2017-01-29T08:39:29.407Z,152
2017-01-29T08:40:29.513Z,128
2017-01-29T08:41:29.415Z,112
2017-01-29T08:42:29.731Z,108
2017-01-29T08:43:29.083Z,116
2017-01-29T08:44:29.089Z,112
2017-01-29T08:45:29.501Z,104
2017-01-29T08:46:29.443Z,96
2017-01-29T08:47:29.211Z,88
2017-01-29T08:48:29.458Z,80
2017-01-29T08:49:28.723Z,76
2017-01-29T08:50:29.625Z,72
2017-01-29T08:51:29.529Z,68
2017-01-29T08:52:29.587Z,72
2017-01-29T08:53:29.844Z,76
2017-01-29T08:54:29.598Z,80
2017-01-29T08:55:29.500Z,76
2017-01-29T08:56:29.112Z,68
2017-01-29T08:57:29.515Z,68
2017-01-29T08:58:29.571Z,60
2017-01-29T08:59:29.225Z,56
2017-01-29T09:00:29.531Z,48
2017-01-29T09:01:29.190Z,48
2017-01-29T09:02:29.279Z,56
2017-01-29T09:03:29.654Z,52
2017-01-29T09:04:29.260Z,52
2017-01-29T09:05:29.605Z,60
2017-01-29T09:06:29.565Z,84
2017-01-29T09:07:28.830Z,88
2017-01-29T09:08:29.235Z,80
2017-01-29T09:09:29.286Z,76
2017-01-29T09:10:29.644Z,72
2017-01-29T09:11:29.594Z,72
2017-01-29T09:12:29.597Z,72
2017-01-29T09:13:29.708Z,68
2017-01-29T09:14:29.665Z,68
2017-01-29T09:15:29.304Z,72
2017-01-29T09:16:29.626Z,80
2017-01-29T09:17:29.285Z,92
2017-01-29T09:18:29.687Z,92
2017-01-29T09:19:29.293Z,92
2017-01-29T09:20:29.696Z,88
2017-01-29T09:21:29.706Z,92
2017-01-29T09:22:29.712Z,104
2017-01-29T09:23:29.371Z,120
2017-01-29T09:24:29.769Z,136
2017-01-29T09:25:29.286Z,132
2017-01-29T09:26:29.337Z,124
2017-01-29T09:27:29.741Z,116
2017-01-29T09:28:28.907Z,116
2017-01-29T09:29:29.361Z,108
2017-01-29T09:30:29.364Z,100
2017-01-29T09:31:29.721Z,104
2017-01-29T09:32:29.820Z,112
2017-01-29T09:33:29.780Z,100
2017-01-29T09:34:29.786Z,104
2017-01-29T09:35:29.347Z,112
2017-01-29T09:36:29.799Z,120
2017-01-29T09:37:29.409Z,124
2017-01-29T09:38:29.364Z,116
2017-01-29T09:39:29.823Z,128
2017-01-29T09:40:29.768Z,132
2017-01-29T09:41:29.780Z,148
2017-01-29T09:42:29.830Z,168
2017-01-29T09:43:29.888Z,152
2017-01-29T09:44:29.453Z,148
2017-01-29T09:45:29.913Z,144
2017-01-29T09:46:29.845Z,140
2017-01-29T09:47:29.864Z,148
2017-01-29T09:48:29.423Z,148
2017-01-29T09:49:29.481Z,164
2017-01-29T09:50:29.935Z,192
2017-01-29T09:51:29.439Z,244
2017-01-29T09:52:29.553Z,240
2017-01-29T09:53:29.945Z,244
2017-01-29T09:54:29.958Z,276
2017-01-29T09:55:29.516Z,224
2017-01-29T09:56:29.471Z,200
2017-01-29T09:57:29.875Z,164
2017-01-29T09:58:29.485Z,188
2017-01-29T09:59:29.637Z,272
2017-01-29T10:00:29.532Z,380
2017-01-29T10:01:30.000Z,556
2017-01-29T10:02:30.009Z,536
2017-01-29T10:03:29.613Z,540
2017-01-29T10:04:29.524Z,732
2017-01-29T10:05:29.925Z,684
2017-01-29T10:06:29.543Z,544
2017-01-29T10:07:29.989Z,488
2017-01-29T10:08:30.046Z,492
2017-01-29T10:09:29.950Z,536
2017-01-29T10:10:30.009Z,600
2017-01-29T10:11:29.968Z,480
2017-01-29T10:12:29.967Z,344
2017-01-29T10:13:29.980Z,320
2017-01-29T10:14:30.281Z,316
2017-01-29T10:15:30.037Z,344
2017-01-29T10:16:29.992Z,448
2017-01-29T10:17:30.076Z,508
2017-01-29T10:18:30.010Z,548
2017-01-29T10:19:30.063Z,540
2017-01-29T10:20:29.672Z,624
2017-01-29T10:21:30.024Z,664
2017-01-29T10:22:29.639Z,708
2017-01-29T10:23:30.085Z,664
2017-01-29T10:24:30.096Z,604
2017-01-29T10:25:30.048Z,576
2017-01-29T10:26:30.051Z,504
2017-01-29T10:27:30.060Z,496
2017-01-29T10:28:30.073Z,548
2017-01-29T10:29:29.674Z,528
2017-01-29T10:30:29.682Z,504
2017-01-29T10:31:30.186Z,516
2017-01-29T10:32:30.089Z,536
2017-01-29T10:33:30.093Z,528
2017-01-29T10:34:30.105Z,524
2017-01-29T10:35:30.109Z,576
2017-01-29T10:36:30.115Z,560
2017-01-29T10:37:29.730Z,772
2017-01-29T10:38:29.735Z,744
2017-01-29T10:39:29.786Z,696
2017-01-29T10:40:30.151Z,900
2017-01-29T10:41:30.149Z,940
2017-01-29T10:42:29.911Z,820
2017-01-29T10:43:30.312Z,772
2017-01-29T10:44:30.168Z,856
2017-01-29T10:45:29.777Z,800
2017-01-29T10:46:30.180Z,764
2017-01-29T10:47:30.232Z,780
2017-01-29T10:48:30.192Z,864
2017-01-29T10:49:30.207Z,1020
2017-01-29T10:50:29.860Z,924
2017-01-29T10:51:29.864Z,864
2017-01-29T10:52:30.276Z,848
2017-01-29T10:53:30.275Z,880
2017-01-29T10:54:29.883Z,744
2017-01-29T10:55:30.236Z,764
2017-01-29T10:56:30.246Z,892
2017-01-29T10:57:29.854Z,876
2017-01-29T10:58:29.864Z,712
2017-01-29T10:59:30.311Z,612
2017-01-29T11:00:29.918Z,580
2017-01-29T11:01:30.272Z,560
2017-01-29T11:02:30.280Z,536
2017-01-29T11:03:30.284Z,532
2017-01-29T11:04:30.392Z,592
2017-01-29T11:05:30.397Z,728
2017-01-29T11:06:29.550Z,752
2017-01-29T11:07:29.916Z,748
2017-01-29T11:08:30.320Z,748
2017-01-29T11:09:30.325Z,764
2017-01-29T11:10:29.929Z,812
2017-01-29T11:11:30.440Z,920
2017-01-29T11:12:30.390Z,908
2017-01-29T11:13:30.402Z,876
2017-01-29T11:14:30.455Z,840
2017-01-29T11:15:30.362Z,848
2017-01-29T11:16:29.977Z,820
2017-01-29T11:17:30.433Z,816
2017-01-29T11:18:30.032Z,868
2017-01-29T11:19:30.042Z,948
2017-01-29T11:20:30.440Z,944
2017-01-29T11:21:30.449Z,928
2017-01-29T11:22:30.056Z,908
2017-01-29T11:23:30.415Z,888
2017-01-29T11:24:30.416Z,884
2017-01-29T11:25:30.424Z,856
2017-01-29T11:26:30.429Z,876
2017-01-29T11:27:30.436Z,916
2017-01-29T11:28:30.439Z,956
2017-01-29T11:29:30.502Z,1004
2017-01-29T11:30:30.059Z,972
2017-01-29T11:31:30.516Z,980
2017-01-29T11:32:30.494Z,976
2017-01-29T11:33:29.734Z,960
2017-01-29T11:34:30.530Z,908
2017-01-29T11:35:30.140Z,900
2017-01-29T11:36:30.092Z,912
2017-01-29T11:37:30.498Z,904
2017-01-29T11:38:30.574Z,888
2017-01-29T11:39:30.175Z,860
2017-01-29T11:40:30.566Z,872
2017-01-29T11:41:30.213Z,920
2017-01-29T11:42:30.530Z,896
2017-01-29T11:43:30.592Z,896
2017-01-29T11:44:30.692Z,928
2017-01-29T11:45:30.547Z,916
2017-01-29T11:46:30.258Z,872
2017-01-29T11:47:30.561Z,892
2017-01-29T11:48:30.621Z,944
2017-01-29T11:49:30.570Z,872
2017-01-29T11:50:30.697Z,832
2017-01-29T11:51:30.636Z,824
2017-01-29T11:52:30.196Z,812
2017-01-29T11:53:30.948Z,904
2017-01-29T11:54:30.602Z,988
2017-01-29T11:55:30.613Z,1024
2017-01-29T11:56:30.319Z,1052
2017-01-29T11:57:30.676Z,1036
2017-01-29T11:58:30.635Z,936
2017-01-29T11:59:30.299Z,924
2017-01-29T12:00:30.637Z,916
2017-01-29T12:01:30.749Z,964
2017-01-29T12:02:30.705Z,968
2017-01-29T12:03:29.868Z,928
2017-01-29T12:04:30.721Z,892
2017-01-29T12:05:30.333Z,856
2017-01-29T12:06:30.738Z,828
2017-01-29T12:07:30.683Z,804
2017-01-29T12:08:29.951Z,804
2017-01-29T12:09:30.699Z,836
2017-01-29T12:10:30.704Z,852
2017-01-29T12:11:30.765Z,884
2017-01-29T12:12:30.717Z,908
2017-01-29T12:13:30.776Z,908
2017-01-29T12:14:30.729Z,872
2017-01-29T12:15:30.784Z,816
2017-01-29T12:16:30.742Z,788
2017-01-29T12:17:30.798Z,776
2017-01-29T12:18:30.458Z,764
2017-01-29T12:19:29.974Z,772
2017-01-29T12:20:29.578Z,772
2017-01-29T12:21:30.792Z,768
2017-01-29T12:22:30.880Z,744
2017-01-29T12:23:30.799Z,740
2017-01-29T12:24:30.791Z,736
2017-01-29T12:25:31.149Z,732
2017-01-29T12:26:30.456Z,744
2017-01-29T12:27:30.419Z,712
2017-01-29T12:28:30.422Z,708
2017-01-29T12:29:30.824Z,712
2017-01-29T12:30:30.882Z,716
2017-01-29T12:31:30.834Z,708
2017-01-29T12:32:30.894Z,672
2017-01-29T12:33:30.852Z,664
2017-01-29T12:34:30.957Z,652
2017-01-29T12:35:30.877Z,620
2017-01-29T12:36:30.471Z,620
2017-01-29T12:37:30.573Z,632
2017-01-29T12:38:30.982Z,628
2017-01-29T12:39:30.886Z,620
2017-01-29T12:40:31.040Z,608
2017-01-29T12:41:30.549Z,608
2017-01-29T12:42:30.901Z,620
2017-01-29T12:43:30.907Z,624
2017-01-29T12:44:30.965Z,624
2017-01-29T12:45:30.917Z,640
2017-01-29T12:46:30.931Z,656
2017-01-29T12:47:30.934Z,652
2017-01-29T12:48:30.994Z,664
2017-01-29T12:49:30.997Z,672
2017-01-29T12:50:30.947Z,668
2017-01-29T12:51:30.559Z,664
2017-01-29T12:52:31.011Z,652
2017-01-29T12:53:31.068Z,632
2017-01-29T12:54:30.974Z,612
2017-01-29T12:55:31.081Z,616
2017-01-29T12:56:30.989Z,612
2017-01-29T12:57:31.088Z,616
2017-01-29T12:58:31.104Z,632
2017-01-29T12:59:31.102Z,608
2017-01-29T13:00:31.014Z,592
2017-01-29T13:01:31.073Z,560
2017-01-29T13:02:30.679Z,532
2017-01-29T13:03:31.080Z,520
2017-01-29T13:04:31.135Z,524
2017-01-29T13:05:31.041Z,536
2017-01-29T13:06:31.096Z,544
2017-01-29T13:07:31.052Z,504
2017-01-29T13:08:31.113Z,504
2017-01-29T13:09:31.067Z,484
2017-01-29T13:10:31.079Z,484
2017-01-29T13:11:30.834Z,504
2017-01-29T13:12:31.137Z,552
2017-01-29T13:13:31.144Z,532
2017-01-29T13:14:31.196Z,504
2017-01-29T13:15:30.802Z,432
2017-01-29T13:16:31.117Z,468
2017-01-29T13:17:31.161Z,480
2017-01-29T13:18:31.174Z,464
2017-01-29T13:19:31.177Z,460
2017-01-29T13:20:31.181Z,484
2017-01-29T13:21:31.146Z,504
2017-01-29T13:22:31.150Z,556
2017-01-29T13:23:31.155Z,564
2017-01-29T13:24:30.791Z,576
2017-01-29T13:25:31.168Z,576
2017-01-29T13:26:31.169Z,592
2017-01-29T13:27:30.930Z,580
2017-01-29T13:28:30.830Z,596
2017-01-29T13:29:31.352Z,628
2017-01-29T13:30:30.801Z,660
2017-01-29T13:31:30.881Z,660
2017-01-29T13:32:31.446Z,692
2017-01-29T13:33:31.131Z,700
2017-01-29T13:34:30.746Z,864
2017-01-29T13:35:31.043Z,1520
2017-01-29T13:36:31.307Z,1636
2017-01-29T13:37:31.333Z,1420
2017-01-29T13:38:30.983Z,2548
2017-01-29T13:39:31.363Z,2004
2017-01-29T13:40:31.528Z,1756
2017-01-29T13:41:31.017Z,1552
2017-01-29T13:42:31.269Z,1368
2017-01-29T13:43:31.276Z,1364
2017-01-29T13:44:31.283Z,1152
2017-01-29T13:45:31.291Z,1084
2017-01-29T13:46:31.351Z,1128
2017-01-29T13:47:31.073Z,980
2017-01-29T13:48:31.533Z,600
2017-01-29T13:49:31.317Z,1004
2017-01-29T13:50:31.373Z,804
2017-01-29T13:51:31.431Z,884
2017-01-29T13:52:30.989Z,968
2017-01-29T13:53:31.342Z,860
2017-01-29T13:54:31.646Z,756
2017-01-29T13:55:31.352Z,972
2017-01-29T13:56:30.620Z,840
2017-01-29T13:57:31.362Z,772
2017-01-29T13:58:31.428Z,636
2017-01-29T13:59:31.386Z,496
2017-01-29T14:00:31.432Z,636
2017-01-29T14:01:31.496Z,656
2017-01-29T14:02:30.999Z,768
2017-01-29T14:03:31.486Z,548
2017-01-29T14:04:30.665Z,488
2017-01-29T14:05:31.466Z,496
2017-01-29T14:06:31.423Z,472
2017-01-29T14:07:31.184Z,752
2017-01-29T14:08:31.536Z,504
2017-01-29T14:09:31.491Z,488
2017-01-29T14:10:31.053Z,500
2017-01-29T14:11:31.108Z,468
2017-01-29T14:12:31.460Z,428
2017-01-29T14:13:31.168Z,404
2017-01-29T14:14:31.473Z,372
2017-01-29T14:15:31.483Z,332
2017-01-29T14:16:31.535Z,300
2017-01-29T14:17:31.491Z,268
2017-01-29T14:18:31.500Z,256
2017-01-29T14:19:31.804Z,256